sensor_id;sensor_type;location;lat;lon;timestamp;pressure;altitude;pressure_sealevel;temperature;humidity
8697;BME280;4385;48.848;8.924;2023-08-24T00:00:29;97639.75;;;25.93;100.00
8697;BME280;4385;48.848;8.924;2023-08-24T00:02:57;97640.56;;;25.94;100.00
8697;BME280;4385;48.848;8.924;2023-08-24T00:05:23;97642.34;;;25.93;100.00
8697;BME280;4385;48.848;8.924;2023-08-24T00:07:48;97638.91;;;25.93;100.00
8697;BME280;4385;48.848;8.924;2023-08-24T00:10:13;97638.06;;;25.92;100.00
8697;BME280;4385;48.848;8.924;2023-08-24T00:12:39;97636.41;;;25.91;100.00
8697;BME280;4385;48.848;8.924;2023-08-24T00:15:07;97628.66;;;25.91;100.00
8697;BME280;4385;48.848;8.924;2023-08-24T00:17:34;97621.84;;;25.90;100.00
8697;BME280;4385;48.848;8.924;2023-08-24T00:19:59;97614.09;;;25.90;100.00
8697;BME280;4385;48.848;8.924;2023-08-24T00:22:24;97612.41;;;25.89;100.00
8697;BME280;4385;48.848;8.924;2023-08-24T00:24:49;97612.41;;;25.89;100.00
8697;BME280;4385;48.848;8.924;2023-08-24T00:27:15;97612.41;;;25.89;100.00
8697;BME280;4385;48.848;8.924;2023-08-24T00:29:40;97614.97;;;25.89;100.00
8697;BME280;4385;48.848;8.924;2023-08-24T00:32:05;97631.41;;;25.88;100.00
8697;BME280;4385;48.848;8.924;2023-08-24T00:34:31;97628.81;;;25.88;100.00
8697;BME280;4385;48.848;8.924;2023-08-24T00:36:56;97615.91;;;25.88;100.00
8697;BME280;4385;48.848;8.924;2023-08-24T00:39:21;97612.47;;;25.87;100.00
8697;BME280;4385;48.848;8.924;2023-08-24T00:41:46;97608.16;;;25.88;100.00
8697;BME280;4385;48.848;8.924;2023-08-24T00:44:12;97598.75;;;25.87;100.00
8697;BME280;4385;48.848;8.924;2023-08-24T00:46:37;97596.19;;;25.87;100.00
8697;BME280;4385;48.848;8.924;2023-08-24T00:49:02;97594.41;;;25.87;100.00
8697;BME280;4385;48.848;8.924;2023-08-24T00:51:28;97586.75;;;25.86;100.00
8697;BME280;4385;48.848;8.924;2023-08-24T00:53:53;97589.34;;;25.86;100.00
8697;BME280;4385;48.848;8.924;2023-08-24T00:56:19;97581.59;;;25.86;100.00
8697;BME280;4385;48.848;8.924;2023-08-24T00:58:50;97580.78;;;25.85;100.00
8697;BME280;4385;48.848;8.924;2023-08-24T01:01:17;97582.50;;;25.85;100.00
8697;BME280;4385;48.848;8.924;2023-08-24T01:03:42;97577.34;;;25.85;100.00
8697;BME280;4385;48.848;8.924;2023-08-24T01:06:07;97576.50;;;25.84;100.00
8697;BME280;4385;48.848;8.924;2023-08-24T01:08:33;97573.09;;;25.84;100.00
8697;BME280;4385;48.848;8.924;2023-08-24T01:13:50;97579.25;;;25.81;100.00
8697;BME280;4385;48.848;8.924;2023-08-24T01:16:22;97578.44;;;25.81;100.00
8697;BME280;4385;48.848;8.924;2023-08-24T01:18:57;97575.84;;;25.81;100.00
8697;BME280;4385;48.848;8.924;2023-08-24T01:21:25;97570.69;;;25.81;100.00
8697;BME280;4385;48.848;8.924;2023-08-24T01:26:26;97573.34;;;25.79;100.00
8697;BME280;4385;48.848;8.924;2023-08-24T01:28:52;97569.91;;;25.78;100.00
8697;BME280;4385;48.848;8.924;2023-08-24T01:31:17;97574.16;;;25.80;100.00
8697;BME280;4385;48.848;8.924;2023-08-24T01:33:44;97575.09;;;25.78;100.00
8697;BME280;4385;48.848;8.924;2023-08-24T01:36:11;97572.59;;;25.77;100.00
8697;BME280;4385;48.848;8.924;2023-08-24T01:38:37;97575.25;;;25.75;100.00
8697;BME280;4385;48.848;8.924;2023-08-24T01:41:18;97576.91;;;25.76;100.00
8697;BME280;4385;48.848;8.924;2023-08-24T01:43:46;97584.63;;;25.76;100.00
8697;BME280;4385;48.848;8.924;2023-08-24T01:46:15;97592.47;;;25.75;100.00
8697;BME280;4385;48.848;8.924;2023-08-24T01:48:42;97582.13;;;25.75;100.00
8697;BME280;4385;48.848;8.924;2023-08-24T01:51:09;97589.88;;;25.75;100.00
8697;BME280;4385;48.848;8.924;2023-08-24T01:53:36;97585.66;;;25.74;100.00
8697;BME280;4385;48.848;8.924;2023-08-24T01:56:10;97584.78;;;25.73;100.00
8697;BME280;4385;48.848;8.924;2023-08-24T01:58:36;97589.97;;;25.73;100.00
8697;BME280;4385;48.848;8.924;2023-08-24T02:01:01;97592.47;;;25.75;100.00
8697;BME280;4385;48.848;8.924;2023-08-24T02:03:27;97586.47;;;25.74;100.00
8697;BME280;4385;48.848;8.924;2023-08-24T02:05:52;97589.06;;;25.74;100.00
8697;BME280;4385;48.848;8.924;2023-08-24T02:08:17;97582.13;;;25.75;100.00
8697;BME280;4385;48.848;8.924;2023-08-24T02:10:42;97585.66;;;25.74;100.00
8697;BME280;4385;48.848;8.924;2023-08-24T02:13:08;97585.66;;;25.74;100.00
8697;BME280;4385;48.848;8.924;2023-08-24T02:15:33;97579.63;;;25.73;100.00
8697;BME280;4385;48.848;8.924;2023-08-24T02:17:58;97573.66;;;25.73;100.00
8697;BME280;4385;48.848;8.924;2023-08-24T02:20:24;97577.91;;;25.74;100.00
8697;BME280;4385;48.848;8.924;2023-08-24T02:22:49;97566.72;;;25.73;100.00
8697;BME280;4385;48.848;8.924;2023-08-24T02:25:14;97574.47;;;25.73;100.00
8697;BME280;4385;48.848;8.924;2023-08-24T02:27:40;97567.66;;;25.72;100.00
8697;BME280;4385;48.848;8.924;2023-08-24T02:30:06;97567.72;;;25.71;100.00
8697;BME280;4385;48.848;8.924;2023-08-24T02:32:31;97566.88;;;25.70;100.00
8697;BME280;4385;48.848;8.924;2023-08-24T02:34:56;97568.66;;;25.70;100.00
8697;BME280;4385;48.848;8.924;2023-08-24T02:37:22;97569.47;;;25.70;100.00
8697;BME280;4385;48.848;8.924;2023-08-24T02:39:47;97564.31;;;25.70;100.00
8697;BME280;4385;48.848;8.924;2023-08-24T02:42:12;97559.16;;;25.70;100.00
8697;BME280;4385;48.848;8.924;2023-08-24T02:44:38;97559.31;;;25.67;100.00
8697;BME280;4385;48.848;8.924;2023-08-24T02:47:04;97557.72;;;25.64;100.00
8697;BME280;4385;48.848;8.924;2023-08-24T02:49:29;97562.97;;;25.63;100.00
8697;BME280;4385;48.848;8.924;2023-08-24T02:51:54;97559.47;;;25.64;100.00
8697;BME280;4385;48.848;8.924;2023-08-24T02:54:20;97555.22;;;25.63;100.00
8697;BME280;4385;48.848;8.924;2023-08-24T02:56:45;97552.66;;;25.63;100.00
8697;BME280;4385;48.848;8.924;2023-08-24T02:59:10;97556.16;;;25.62;100.00
8697;BME280;4385;48.848;8.924;2023-08-24T03:01:36;97556.16;;;25.62;100.00
8697;BME280;4385;48.848;8.924;2023-08-24T03:04:04;97552.66;;;25.63;100.00
8697;BME280;4385;48.848;8.924;2023-08-24T03:06:30;97544.97;;;25.61;100.00
8697;BME280;4385;48.848;8.924;2023-08-24T03:08:55;97543.28;;;25.60;100.00
8697;BME280;4385;48.848;8.924;2023-08-24T03:11:20;97543.38;;;25.59;100.00
8697;BME280;4385;48.848;8.924;2023-08-24T03:13:46;97546.75;;;25.59;100.00
8697;BME280;4385;48.848;8.924;2023-08-24T03:16:11;97545.03;;;25.60;100.00
8697;BME280;4385;48.848;8.924;2023-08-24T03:18:36;97550.19;;;25.60;100.00
8697;BME280;4385;48.848;8.924;2023-08-24T03:21:02;97542.53;;;25.58;100.00
8697;BME280;4385;48.848;8.924;2023-08-24T03:23:27;97542.59;;;25.57;100.00
8697;BME280;4385;48.848;8.924;2023-08-24T03:25:53;97529.72;;;25.57;100.00
8697;BME280;4385;48.848;8.924;2023-08-24T03:28:18;97525.47;;;25.56;100.00
8697;BME280;4385;48.848;8.924;2023-08-24T03:30:48;97522.88;;;25.56;100.00
8697;BME280;4385;48.848;8.924;2023-08-24T03:33:14;97520.31;;;25.56;100.00
8697;BME280;4385;48.848;8.924;2023-08-24T03:35:40;97512.56;;;25.56;100.00
8697;BME280;4385;48.848;8.924;2023-08-24T03:38:05;97517.56;;;25.59;100.00
8697;BME280;4385;48.848;8.924;2023-08-24T03:40:31;97509.00;;;25.58;100.00
8697;BME280;4385;48.848;8.924;2023-08-24T03:42:56;97508.13;;;25.58;100.00
8697;BME280;4385;48.848;8.924;2023-08-24T03:45:22;97506.41;;;25.58;100.00
8697;BME280;4385;48.848;8.924;2023-08-24T03:47:47;97498.66;;;25.58;100.00
8697;BME280;4385;48.848;8.924;2023-08-24T03:50:12;97498.66;;;25.58;100.00
8697;BME280;4385;48.848;8.924;2023-08-24T03:52:38;97486.69;;;25.57;100.00
8697;BME280;4385;48.848;8.924;2023-08-24T03:55:05;97485.84;;;25.57;100.00
8697;BME280;4385;48.848;8.924;2023-08-24T03:57:31;97487.50;;;25.58;100.00
8697;BME280;4385;48.848;8.924;2023-08-24T03:59:57;97482.34;;;25.58;100.00
8697;BME280;4385;48.848;8.924;2023-08-24T04:02:22;97484.09;;;25.57;100.00
8697;BME280;4385;48.848;8.924;2023-08-24T04:04:48;97485.00;;;25.56;100.00
8697;BME280;4385;48.848;8.924;2023-08-24T04:07:13;97477.25;;;25.56;100.00
8697;BME280;4385;48.848;8.924;2023-08-24T04:09:38;97470.44;;;25.55;100.00
8697;BME280;4385;48.848;8.924;2023-08-24T04:12:04;97475.53;;;25.57;100.00
8697;BME280;4385;48.848;8.924;2023-08-24T04:14:29;97473.88;;;25.56;100.00
8697;BME280;4385;48.848;8.924;2023-08-24T04:16:54;97477.34;;;25.55;100.00
8697;BME280;4385;48.848;8.924;2023-08-24T04:19:21;97468.78;;;25.54;100.00
8697;BME280;4385;48.848;8.924;2023-08-24T04:21:46;97466.22;;;25.54;100.00
8697;BME280;4385;48.848;8.924;2023-08-24T04:24:11;97469.69;;;25.53;100.00
8697;BME280;4385;48.848;8.924;2023-08-24T04:26:36;97463.72;;;25.52;100.00
8697;BME280;4385;48.848;8.924;2023-08-24T04:29:02;97470.53;;;25.53;100.00
8697;BME280;4385;48.848;8.924;2023-08-24T04:31:27;97474.03;;;25.52;100.00
8697;BME280;4385;48.848;8.924;2023-08-24T04:33:52;97465.44;;;25.52;100.00
8697;BME280;4385;48.848;8.924;2023-08-24T04:36:17;97464.59;;;25.51;100.00
8697;BME280;4385;48.848;8.924;2023-08-24T04:38:43;97465.53;;;25.50;100.00
8697;BME280;4385;48.848;8.924;2023-08-24T04:41:09;97463.78;;;25.51;100.00
8697;BME280;4385;48.848;8.924;2023-08-24T04:43:34;97463.72;;;25.52;100.00
8697;BME280;4385;48.848;8.924;2023-08-24T04:46:01;97467.19;;;25.51;100.00
8697;BME280;4385;48.848;8.924;2023-08-24T04:48:27;97465.53;;;25.50;100.00
8697;BME280;4385;48.848;8.924;2023-08-24T04:50:52;97463.88;;;25.49;100.00
8697;BME280;4385;48.848;8.924;2023-08-24T04:53:19;97463.88;;;25.49;100.00
8697;BME280;4385;48.848;8.924;2023-08-24T04:55:45;97460.44;;;25.49;100.00
8697;BME280;4385;48.848;8.924;2023-08-24T04:58:11;97461.28;;;25.49;100.00
8697;BME280;4385;48.848;8.924;2023-08-24T05:00:37;97453.56;;;25.49;100.00
8697;BME280;4385;48.848;8.924;2023-08-24T05:03:04;97457.78;;;25.50;100.00
8697;BME280;4385;48.848;8.924;2023-08-24T05:05:30;97454.38;;;25.50;100.00
8697;BME280;4385;48.848;8.924;2023-08-24T05:07:57;97445.81;;;25.49;100.00
8697;BME280;4385;48.848;8.924;2023-08-24T05:10:22;97436.38;;;25.48;100.00
8697;BME280;4385;48.848;8.924;2023-08-24T05:12:48;97444.97;;;25.49;100.00
8697;BME280;4385;48.848;8.924;2023-08-24T05:15:13;97438.06;;;25.49;100.00
8697;BME280;4385;48.848;8.924;2023-08-24T05:17:39;97441.53;;;25.48;100.00
8697;BME280;4385;48.848;8.924;2023-08-24T05:20:05;97442.38;;;25.49;100.00
8697;BME280;4385;48.848;8.924;2023-08-24T05:22:30;97434.72;;;25.47;100.00
8697;BME280;4385;48.848;8.924;2023-08-24T05:24:56;97430.50;;;25.46;100.00
8697;BME280;4385;48.848;8.924;2023-08-24T05:27:21;97429.66;;;25.46;100.00
8697;BME280;4385;48.848;8.924;2023-08-24T05:29:46;97426.22;;;25.45;100.00
8697;BME280;4385;48.848;8.924;2023-08-24T05:32:11;97425.41;;;25.45;100.00
8697;BME280;4385;48.848;8.924;2023-08-24T05:34:37;97428.06;;;25.43;100.00
8697;BME280;4385;48.848;8.924;2023-08-24T05:37:02;97414.25;;;25.44;100.00
8697;BME280;4385;48.848;8.924;2023-08-24T05:39:27;97414.25;;;25.44;100.00
8697;BME280;4385;48.848;8.924;2023-08-24T05:41:53;97418.50;;;25.45;100.00
8697;BME280;4385;48.848;8.924;2023-08-24T05:44:19;97413.41;;;25.44;100.00
8697;BME280;4385;48.848;8.924;2023-08-24T05:46:46;97416.75;;;25.46;100.00
8697;BME280;4385;48.848;8.924;2023-08-24T05:49:11;97416.84;;;25.44;100.00
8697;BME280;4385;48.848;8.924;2023-08-24T05:51:36;97422.00;;;25.44;100.00
8697;BME280;4385;48.848;8.924;2023-08-24T05:54:02;97422.91;;;25.43;100.00
8697;BME280;4385;48.848;8.924;2023-08-24T05:56:27;97420.25;;;25.45;100.00
8697;BME280;4385;48.848;8.924;2023-08-24T05:58:54;97429.72;;;25.44;100.00
8697;BME280;4385;48.848;8.924;2023-08-24T06:01:19;97422.00;;;25.44;100.00
8697;BME280;4385;48.848;8.924;2023-08-24T06:03:44;97436.53;;;25.45;100.00
8697;BME280;4385;48.848;8.924;2023-08-24T06:06:10;97441.69;;;25.45;100.00
8697;BME280;4385;48.848;8.924;2023-08-24T06:08:35;97446.06;;;25.45;100.00
8697;BME280;4385;48.848;8.924;2023-08-24T06:11:00;97439.97;;;25.46;100.00
8697;BME280;4385;48.848;8.924;2023-08-24T06:13:26;97443.41;;;25.46;100.00
8697;BME280;4385;48.848;8.924;2023-08-24T06:15:52;97440.81;;;25.46;100.00
8697;BME280;4385;48.848;8.924;2023-08-24T06:18:17;97450.22;;;25.47;100.00
8697;BME280;4385;48.848;8.924;2023-08-24T06:20:42;97450.22;;;25.47;100.00
8697;BME280;4385;48.848;8.924;2023-08-24T06:23:08;97457.94;;;25.47;100.00
8697;BME280;4385;48.848;8.924;2023-08-24T06:25:33;97461.38;;;25.48;100.00
8697;BME280;4385;48.848;8.924;2023-08-24T06:27:59;97472.50;;;25.48;100.00
8697;BME280;4385;48.848;8.924;2023-08-24T06:30:25;97474.19;;;25.49;100.00
8697;BME280;4385;48.848;8.924;2023-08-24T06:32:50;97487.97;;;25.48;100.00
8697;BME280;4385;48.848;8.924;2023-08-24T06:35:16;97505.16;;;25.49;100.00
8697;BME280;4385;48.848;8.924;2023-08-24T06:37:42;97506.03;;;25.48;100.00
8697;BME280;4385;48.848;8.924;2023-08-24T06:40:08;97515.47;;;25.49;100.00
8697;BME280;4385;48.848;8.924;2023-08-24T06:42:33;97530.00;;;25.50;100.00
8697;BME280;4385;48.848;8.924;2023-08-24T06:44:59;97539.41;;;25.51;100.00
8697;BME280;4385;48.848;8.924;2023-08-24T06:47:24;97532.59;;;25.50;100.00
8697;BME280;4385;48.848;8.924;2023-08-24T06:49:50;97527.44;;;25.50;100.00
8697;BME280;4385;48.848;8.924;2023-08-24T06:52:15;97523.94;;;25.51;100.00
8697;BME280;4385;48.848;8.924;2023-08-24T06:54:41;97501.63;;;25.50;100.00
8697;BME280;4385;48.848;8.924;2023-08-24T06:57:06;97466.44;;;25.49;100.00
8697;BME280;4385;48.848;8.924;2023-08-24T06:59:31;97456.06;;;25.51;100.00
8697;BME280;4385;48.848;8.924;2023-08-24T07:01:56;97464.69;;;25.50;100.00
8697;BME280;4385;48.848;8.924;2023-08-24T07:04:23;97470.69;;;25.50;100.00
8697;BME280;4385;48.848;8.924;2023-08-24T07:06:48;97468.09;;;25.50;100.00
8697;BME280;4385;48.848;8.924;2023-08-24T07:09:14;97455.22;;;25.50;100.00
8697;BME280;4385;48.848;8.924;2023-08-24T07:11:40;97451.69;;;25.51;100.00
8697;BME280;4385;48.848;8.924;2023-08-24T07:14:05;97460.28;;;25.52;100.00
8697;BME280;4385;48.848;8.924;2023-08-24T07:16:31;97469.69;;;25.53;100.00
8697;BME280;4385;48.848;8.924;2023-08-24T07:18:56;97463.72;;;25.52;100.00
8697;BME280;4385;48.848;8.924;2023-08-24T07:21:21;97470.53;;;25.53;100.00
8697;BME280;4385;48.848;8.924;2023-08-24T07:23:46;97466.22;;;25.54;100.00
8697;BME280;4385;48.848;8.924;2023-08-24T07:26:12;97471.38;;;25.54;100.00
8697;BME280;4385;48.848;8.924;2023-08-24T07:28:37;97473.03;;;25.55;100.00
8697;BME280;4385;48.848;8.924;2023-08-24T07:31:09;97463.56;;;25.56;100.00
8697;BME280;4385;48.848;8.924;2023-08-24T07:33:36;97465.22;;;25.57;100.00
8697;BME280;4385;48.848;8.924;2023-08-24T07:36:04;97463.56;;;25.56;100.00
8697;BME280;4385;48.848;8.924;2023-08-24T07:38:30;97447.06;;;25.58;100.00
8697;BME280;4385;48.848;8.924;2023-08-24T07:40:56;97447.06;;;25.58;100.00
8697;BME280;4385;48.848;8.924;2023-08-24T07:43:22;97442.91;;;25.56;100.00
8697;BME280;4385;48.848;8.924;2023-08-24T07:45:47;97453.88;;;25.59;100.00
8697;BME280;4385;48.848;8.924;2023-08-24T07:48:12;97463.38;;;25.59;100.00
8697;BME280;4385;48.848;8.924;2023-08-24T07:50:37;97465.03;;;25.60;100.00
8697;BME280;4385;48.848;8.924;2023-08-24T07:53:03;97471.22;;;25.57;100.00
8697;BME280;4385;48.848;8.924;2023-08-24T07:55:29;97474.59;;;25.58;100.00
8697;BME280;4385;48.848;8.924;2023-08-24T07:57:55;97478.09;;;25.57;100.00
8697;BME280;4385;48.848;8.924;2023-08-24T08:00:21;97477.19;;;25.58;100.00
8697;BME280;4385;48.848;8.924;2023-08-24T08:02:49;97468.47;;;25.60;100.00
8697;BME280;4385;48.848;8.924;2023-08-24T08:05:14;97474.47;;;25.61;100.00
8697;BME280;4385;48.848;8.924;2023-08-24T08:07:40;97470.16;;;25.61;100.00
8697;BME280;4385;48.848;8.924;2023-08-24T08:10:05;97469.31;;;25.61;100.00
8697;BME280;4385;48.848;8.924;2023-08-24T08:12:31;97463.25;;;25.62;100.00
8697;BME280;4385;48.848;8.924;2023-08-24T08:14:57;97465.84;;;25.62;100.00
8697;BME280;4385;48.848;8.924;2023-08-24T08:17:22;97457.25;;;25.61;100.00
8697;BME280;4385;48.848;8.924;2023-08-24T08:19:48;97454.69;;;25.61;100.00
8697;BME280;4385;48.848;8.924;2023-08-24T08:22:13;97464.19;;;25.59;100.00
8697;BME280;4385;48.848;8.924;2023-08-24T08:24:39;97471.91;;;25.61;100.00
8697;BME280;4385;48.848;8.924;2023-08-24T08:27:04;97470.22;;;25.60;100.00
8697;BME280;4385;48.848;8.924;2023-08-24T08:29:29;97479.69;;;25.59;100.00
8697;BME280;4385;48.848;8.924;2023-08-24T08:31:54;97469.38;;;25.59;100.00
8697;BME280;4385;48.848;8.924;2023-08-24T08:34:20;97477.91;;;25.61;100.00
8697;BME280;4385;48.848;8.924;2023-08-24T08:36:45;97470.16;;;25.61;100.00
8697;BME280;4385;48.848;8.924;2023-08-24T08:39:11;97466.72;;;25.61;100.00
8697;BME280;4385;48.848;8.924;2023-08-24T08:41:43;97469.31;;;25.61;100.00
8697;BME280;4385;48.848;8.924;2023-08-24T08:44:13;97465.03;;;25.60;100.00
8697;BME280;4385;48.848;8.924;2023-08-24T08:46:41;97460.69;;;25.62;100.00
8697;BME280;4385;48.848;8.924;2023-08-24T08:49:07;97469.22;;;25.62;100.00
8697;BME280;4385;48.848;8.924;2023-08-24T08:51:35;97458.03;;;25.63;100.00
8697;BME280;4385;48.848;8.924;2023-08-24T08:54:00;97464.91;;;25.63;100.00
8697;BME280;4385;48.848;8.924;2023-08-24T08:56:26;97459.75;;;25.63;100.00
8697;BME280;4385;48.848;8.924;2023-08-24T08:58:51;97471.72;;;25.64;100.00
8697;BME280;4385;48.848;8.924;2023-08-24T09:01:18;97459.75;;;25.63;100.00
8697;BME280;4385;48.848;8.924;2023-08-24T09:03:44;97454.59;;;25.63;100.00
8697;BME280;4385;48.848;8.924;2023-08-24T09:06:10;97440.78;;;25.64;100.00
8697;BME280;4385;48.848;8.924;2023-08-24T09:08:36;97431.38;;;25.63;100.00
8697;BME280;4385;48.848;8.924;2023-08-24T09:11:02;97433.88;;;25.64;100.00
8697;BME280;4385;48.848;8.924;2023-08-24T09:13:29;97426.97;;;25.65;100.00
8697;BME280;4385;48.848;8.924;2023-08-24T09:16:02;97436.47;;;25.64;100.00
8697;BME280;4385;48.848;8.924;2023-08-24T09:18:36;97425.28;;;25.64;100.00
8697;BME280;4385;48.848;8.924;2023-08-24T09:21:08;97413.31;;;25.63;100.00
8697;BME280;4385;48.848;8.924;2023-08-24T09:23:34;97409.00;;;25.63;100.00
8697;BME280;4385;48.848;8.924;2023-08-24T09:25:59;97396.91;;;25.64;100.00
8697;BME280;4385;48.848;8.924;2023-08-24T09:28:24;97407.22;;;25.64;100.00
8697;BME280;4385;48.848;8.924;2023-08-24T09:30:55;97409.66;;;25.67;100.00
8697;BME280;4385;48.848;8.924;2023-08-24T09:33:20;97404.47;;;25.67;100.00
8697;BME280;4385;48.848;8.924;2023-08-24T09:35:54;97409.66;;;25.67;100.00
8697;BME280;4385;48.848;8.924;2023-08-24T09:38:29;97399.31;;;25.67;100.00
8697;BME280;4385;48.848;8.924;2023-08-24T09:40:55;97389.00;;;25.67;100.00
8697;BME280;4385;48.848;8.924;2023-08-24T09:43:22;97382.09;;;25.68;100.00
8697;BME280;4385;48.848;8.924;2023-08-24T09:45:56;97377.78;;;25.68;100.00
8697;BME280;4385;48.848;8.924;2023-08-24T09:48:23;97370.03;;;25.68;100.00
8697;BME280;4385;48.848;8.924;2023-08-24T09:50:52;97357.97;;;25.69;100.00
8697;BME280;4385;48.848;8.924;2023-08-24T09:53:21;97349.41;;;25.68;100.00
8697;BME280;4385;48.848;8.924;2023-08-24T09:55:55;97341.59;;;25.70;100.00
8697;BME280;4385;48.848;8.924;2023-08-24T09:58:22;97352.72;;;25.70;100.00
8697;BME280;4385;48.848;8.924;2023-08-24T10:00:49;97341.59;;;25.70;100.00
8697;BME280;4385;48.848;8.924;2023-08-24T10:03:17;97331.19;;;25.71;100.00
8697;BME280;4385;48.848;8.924;2023-08-24T10:05:47;97320.09;;;25.69;100.00
8697;BME280;4385;48.848;8.924;2023-08-24T10:08:17;97314.94;;;25.69;100.00
8697;BME280;4385;48.848;8.924;2023-08-24T10:10:46;97314.75;;;25.72;100.00
8697;BME280;4385;48.848;8.924;2023-08-24T10:13:22;97314.75;;;25.72;100.00
8697;BME280;4385;48.848;8.924;2023-08-24T10:15:49;97312.09;;;25.74;100.00
8697;BME280;4385;48.848;8.924;2023-08-24T10:18:15;97305.28;;;25.73;100.00
8697;BME280;4385;48.848;8.924;2023-08-24T10:20:41;97304.44;;;25.72;100.00
8697;BME280;4385;48.848;8.924;2023-08-24T10:23:08;97296.63;;;25.74;100.00
8697;BME280;4385;48.848;8.924;2023-08-24T10:25:34;97302.63;;;25.74;100.00
8697;BME280;4385;48.848;8.924;2023-08-24T10:28:00;97294.97;;;25.73;100.00
8697;BME280;4385;48.848;8.924;2023-08-24T10:30:27;97300.03;;;25.74;100.00
8697;BME280;4385;48.848;8.924;2023-08-24T10:32:54;97297.47;;;25.74;100.00
8697;BME280;4385;48.848;8.924;2023-08-24T10:35:20;97288.78;;;25.75;100.00
8697;BME280;4385;48.848;8.924;2023-08-24T10:37:46;97288.78;;;25.75;100.00
8697;BME280;4385;48.848;8.924;2023-08-24T10:40:12;97288.03;;;25.73;100.00
8697;BME280;4385;48.848;8.924;2023-08-24T10:42:47;97269.97;;;25.73;100.00
8697;BME280;4385;48.848;8.924;2023-08-24T10:45:13;97268.31;;;25.72;100.00
8697;BME280;4385;48.848;8.924;2023-08-24T10:47:44;97253.59;;;25.74;100.00
8697;BME280;4385;48.848;8.924;2023-08-24T10:50:10;97251.19;;;25.71;100.00
8697;BME280;4385;48.848;8.924;2023-08-24T10:52:37;97255.50;;;25.71;100.00
8697;BME280;4385;48.848;8.924;2023-08-24T10:55:05;97254.66;;;25.70;100.00
8697;BME280;4385;48.848;8.924;2023-08-24T10:57:55;97242.69;;;25.69;100.00
8697;BME280;4385;48.848;8.924;2023-08-24T11:00:21;97249.50;;;25.70;100.00
8697;BME280;4385;48.848;8.924;2023-08-24T11:02:49;97240.88;;;25.71;100.00
8697;BME280;4385;48.848;8.924;2023-08-24T11:05:26;97239.09;;;25.72;100.00
8697;BME280;4385;48.848;8.924;2023-08-24T11:08:04;97239.00;;;25.73;100.00
8697;BME280;4385;48.848;8.924;2023-08-24T11:10:45;97233.75;;;25.75;100.00
8697;BME280;4385;48.848;8.924;2023-08-24T11:13:18;97232.03;;;25.75;100.00
8697;BME280;4385;48.848;8.924;2023-08-24T11:15:48;97228.50;;;25.76;100.00
8697;BME280;4385;48.848;8.924;2023-08-24T11:18:28;97236.25;;;25.76;100.00
8697;BME280;4385;48.848;8.924;2023-08-24T11:20:55;97231.00;;;25.78;100.00
8697;BME280;4385;48.848;8.924;2023-08-24T11:23:23;97219.88;;;25.77;100.00
8697;BME280;4385;48.848;8.924;2023-08-24T11:25:51;97206.88;;;25.79;100.00
8697;BME280;4385;48.848;8.924;2023-08-24T11:28:20;97207.69;;;25.80;100.00
8697;BME280;4385;48.848;8.924;2023-08-24T11:30:46;97199.94;;;25.80;100.00
8697;BME280;4385;48.848;8.924;2023-08-24T11:33:12;97193.91;;;25.81;100.00
8697;BME280;4385;48.848;8.924;2023-08-24T11:35:45;97199.88;;;25.81;100.00
8697;BME280;4385;48.848;8.924;2023-08-24T11:38:11;97189.53;;;25.81;100.00
8697;BME280;4385;48.848;8.924;2023-08-24T11:40:36;97186.88;;;25.83;100.00
8697;BME280;4385;48.848;8.924;2023-08-24T11:43:02;97192.03;;;25.83;100.00
8697;BME280;4385;48.848;8.924;2023-08-24T11:45:32;97193.72;;;25.84;100.00
8697;BME280;4385;48.848;8.924;2023-08-24T11:47:58;97183.56;;;25.81;100.00
8697;BME280;4385;48.848;8.924;2023-08-24T11:50:25;97187.72;;;25.83;100.00
8697;BME280;4385;48.848;8.924;2023-08-24T11:52:52;97186.78;;;25.84;100.00
8697;BME280;4385;48.848;8.924;2023-08-24T11:55:18;97185.88;;;25.85;100.00
8697;BME280;4385;48.848;8.924;2023-08-24T11:57:43;97184.13;;;25.86;100.00
8697;BME280;4385;48.848;8.924;2023-08-24T12:00:09;97178.06;;;25.87;100.00
8697;BME280;4385;48.848;8.924;2023-08-24T12:02:39;97176.38;;;25.86;100.00
8697;BME280;4385;48.848;8.924;2023-08-24T12:05:20;97166.06;;;25.86;100.00
8697;BME280;4385;48.848;8.924;2023-08-24T12:07:45;97160.88;;;25.86;100.00
8697;BME280;4385;48.848;8.924;2023-08-24T12:10:12;97156.56;;;25.86;100.00
8697;BME280;4385;48.848;8.924;2023-08-24T12:12:37;97159.06;;;25.88;100.00
8697;BME280;4385;48.848;8.924;2023-08-24T12:15:03;97150.38;;;25.89;100.00
8697;BME280;4385;48.848;8.924;2023-08-24T12:17:28;97149.47;;;25.90;100.00
8697;BME280;4385;48.848;8.924;2023-08-24T12:20:00;97147.72;;;25.90;100.00
8697;BME280;4385;48.848;8.924;2023-08-24T12:22:26;97138.22;;;25.91;100.00
8697;BME280;4385;48.848;8.924;2023-08-24T12:24:51;97130.50;;;25.91;100.00
8697;BME280;4385;48.848;8.924;2023-08-24T12:27:26;97117.59;;;25.91;100.00
8697;BME280;4385;48.848;8.924;2023-08-24T12:29:52;97109.84;;;25.91;100.00
8697;BME280;4385;48.848;8.924;2023-08-24T12:32:18;97112.41;;;25.91;100.00
8697;BME280;4385;48.848;8.924;2023-08-24T12:34:50;97103.84;;;25.90;100.00
8697;BME280;4385;48.848;8.924;2023-08-24T12:37:19;97094.25;;;25.93;100.00
8697;BME280;4385;48.848;8.924;2023-08-24T12:39:45;97096.75;;;25.94;100.00
8697;BME280;4385;48.848;8.924;2023-08-24T12:42:10;97088.16;;;25.94;100.00
8697;BME280;4385;48.848;8.924;2023-08-24T12:44:36;97085.59;;;25.94;100.00
8697;BME280;4385;48.848;8.924;2023-08-24T12:47:02;97084.59;;;25.96;100.00
8697;BME280;4385;48.848;8.924;2023-08-24T12:49:28;97079.53;;;25.95;100.00
8697;BME280;4385;48.848;8.924;2023-08-24T12:51:54;97082.00;;;25.96;100.00
8697;BME280;4385;48.848;8.924;2023-08-24T12:54:19;97074.09;;;25.99;100.00
8697;BME280;4385;48.848;8.924;2023-08-24T12:56:44;97070.75;;;25.97;100.00
8697;BME280;4385;48.848;8.924;2023-08-24T12:59:09;97063.75;;;25.99;100.00
8697;BME280;4385;48.848;8.924;2023-08-24T13:01:35;97062.84;;;26.00;100.00
8697;BME280;4385;48.848;8.924;2023-08-24T13:04:00;97058.50;;;26.01;100.00
8697;BME280;4385;48.848;8.924;2023-08-24T13:06:26;97067.06;;;26.01;100.00
8697;BME280;4385;48.848;8.924;2023-08-24T13:08:52;97068.75;;;26.02;100.00
8697;BME280;4385;48.848;8.924;2023-08-24T13:11:18;97067.91;;;26.02;100.00